sensor_id;sensor_type;location;lat;lon;timestamp;temperature;humidity
49413;DHT22;35493;50.276;9.372;2023-10-09T00:01:50;13.50;87.40
49413;DHT22;35493;50.276;9.372;2023-10-09T00:04:23;13.50;87.40
49413;DHT22;35493;50.276;9.372;2023-10-09T00:06:56;13.60;87.30
49413;DHT22;35493;50.276;9.372;2023-10-09T00:09:31;13.50;87.30
49413;DHT22;35493;50.276;9.372;2023-10-09T00:12:05;13.50;87.40
49413;DHT22;35493;50.276;9.372;2023-10-09T00:14:42;13.50;87.40
49413;DHT22;35493;50.276;9.372;2023-10-09T00:17:21;13.40;87.40
49413;DHT22;35493;50.276;9.372;2023-10-09T00:19:54;13.40;87.50
49413;DHT22;35493;50.276;9.372;2023-10-09T00:22:31;13.40;87.60
49413;DHT22;35493;50.276;9.372;2023-10-09T00:25:09;13.50;87.50
49413;DHT22;35493;50.276;9.372;2023-10-09T00:27:37;13.40;87.50
49413;DHT22;35493;50.276;9.372;2023-10-09T00:30:14;13.40;87.60
49413;DHT22;35493;50.276;9.372;2023-10-09T00:32:51;13.40;87.60
49413;DHT22;35493;50.276;9.372;2023-10-09T00:35:30;13.40;87.60
49413;DHT22;35493;50.276;9.372;2023-10-09T00:38:25;13.40;87.60
49413;DHT22;35493;50.276;9.372;2023-10-09T00:41:05;13.40;87.60
49413;DHT22;35493;50.276;9.372;2023-10-09T00:43:43;13.40;87.60
49413;DHT22;35493;50.276;9.372;2023-10-09T00:46:17;13.40;87.60
49413;DHT22;35493;50.276;9.372;2023-10-09T00:48:58;13.40;87.50
49413;DHT22;35493;50.276;9.372;2023-10-09T00:51:34;13.30;87.60
49413;DHT22;35493;50.276;9.372;2023-10-09T00:54:08;13.30;87.60
49413;DHT22;35493;50.276;9.372;2023-10-09T00:56:45;13.30;87.70
49413;DHT22;35493;50.276;9.372;2023-10-09T00:59:30;13.30;87.50
49413;DHT22;35493;50.276;9.372;2023-10-09T01:02:06;13.30;87.50
49413;DHT22;35493;50.276;9.372;2023-10-09T01:04:34;13.30;87.40
49413;DHT22;35493;50.276;9.372;2023-10-09T01:07:12;13.30;87.50
49413;DHT22;35493;50.276;9.372;2023-10-09T01:09:47;13.30;87.60
49413;DHT22;35493;50.276;9.372;2023-10-09T01:12:23;13.20;87.60
49413;DHT22;35493;50.276;9.372;2023-10-09T01:15:04;13.20;87.50
49413;DHT22;35493;50.276;9.372;2023-10-09T01:17:39;13.20;87.60
49413;DHT22;35493;50.276;9.372;2023-10-09T01:20:23;13.20;87.60
49413;DHT22;35493;50.276;9.372;2023-10-09T01:23:03;13.20;87.60
49413;DHT22;35493;50.276;9.372;2023-10-09T01:25:36;13.20;87.60
49413;DHT22;35493;50.276;9.372;2023-10-09T01:28:18;13.20;87.50
49413;DHT22;35493;50.276;9.372;2023-10-09T01:30:51;13.20;87.60
49413;DHT22;35493;50.276;9.372;2023-10-09T01:33:27;13.10;87.60
49413;DHT22;35493;50.276;9.372;2023-10-09T01:36:09;13.20;87.50
49413;DHT22;35493;50.276;9.372;2023-10-09T01:38:48;13.20;87.40
49413;DHT22;35493;50.276;9.372;2023-10-09T01:41:23;13.20;87.50
49413;DHT22;35493;50.276;9.372;2023-10-09T01:43:56;13.10;87.40
49413;DHT22;35493;50.276;9.372;2023-10-09T01:46:26;13.10;87.50
49413;DHT22;35493;50.276;9.372;2023-10-09T01:48:59;13.10;87.40
49413;DHT22;35493;50.276;9.372;2023-10-09T01:51:40;13.00;87.40
49413;DHT22;35493;50.276;9.372;2023-10-09T01:54:15;13.00;87.30
49413;DHT22;35493;50.276;9.372;2023-10-09T01:57:06;13.00;87.30
49413;DHT22;35493;50.276;9.372;2023-10-09T01:59:42;12.90;87.20
49413;DHT22;35493;50.276;9.372;2023-10-09T02:02:19;13.00;87.20
49413;DHT22;35493;50.276;9.372;2023-10-09T02:04:59;12.90;87.10
49413;DHT22;35493;50.276;9.372;2023-10-09T02:07:41;12.90;87.10
49413;DHT22;35493;50.276;9.372;2023-10-09T02:10:24;12.90;87.00
49413;DHT22;35493;50.276;9.372;2023-10-09T02:13:05;12.80;87.00
49413;DHT22;35493;50.276;9.372;2023-10-09T02:15:40;12.80;86.90
49413;DHT22;35493;50.276;9.372;2023-10-09T02:18:18;12.80;86.90
49413;DHT22;35493;50.276;9.372;2023-10-09T02:21:05;12.70;86.80
49413;DHT22;35493;50.276;9.372;2023-10-09T02:23:44;12.70;87.00
49413;DHT22;35493;50.276;9.372;2023-10-09T02:26:23;12.70;86.80
49413;DHT22;35493;50.276;9.372;2023-10-09T02:28:58;12.70;86.80
49413;DHT22;35493;50.276;9.372;2023-10-09T02:31:35;12.60;86.60
49413;DHT22;35493;50.276;9.372;2023-10-09T02:34:13;12.60;86.70
49413;DHT22;35493;50.276;9.372;2023-10-09T02:36:47;12.60;86.60
49413;DHT22;35493;50.276;9.372;2023-10-09T02:39:21;12.60;86.80
49413;DHT22;35493;50.276;9.372;2023-10-09T02:41:57;12.60;86.70
49413;DHT22;35493;50.276;9.372;2023-10-09T02:44:33;12.50;86.60
49413;DHT22;35493;50.276;9.372;2023-10-09T02:47:11;12.60;86.50
49413;DHT22;35493;50.276;9.372;2023-10-09T02:49:51;12.50;86.50
49413;DHT22;35493;50.276;9.372;2023-10-09T02:52:32;12.50;86.40
49413;DHT22;35493;50.276;9.372;2023-10-09T02:55:12;12.50;86.40
49413;DHT22;35493;50.276;9.372;2023-10-09T02:57:57;12.40;86.50
49413;DHT22;35493;50.276;9.372;2023-10-09T03:00:39;12.40;86.50
49413;DHT22;35493;50.276;9.372;2023-10-09T03:03:15;12.40;86.40
49413;DHT22;35493;50.276;9.372;2023-10-09T03:05:51;12.40;86.50
49413;DHT22;35493;50.276;9.372;2023-10-09T03:08:24;12.30;86.70
49413;DHT22;35493;50.276;9.372;2023-10-09T03:10:52;12.40;86.80
49413;DHT22;35493;50.276;9.372;2023-10-09T03:13:27;12.40;86.90
49413;DHT22;35493;50.276;9.372;2023-10-09T03:16:00;12.40;87.00
49413;DHT22;35493;50.276;9.372;2023-10-09T03:18:34;12.40;87.00
49413;DHT22;35493;50.276;9.372;2023-10-09T03:21:08;12.40;87.10
49413;DHT22;35493;50.276;9.372;2023-10-09T03:23:41;12.40;87.20
49413;DHT22;35493;50.276;9.372;2023-10-09T03:26:16;12.40;87.30
49413;DHT22;35493;50.276;9.372;2023-10-09T03:28:52;12.40;87.40
49413;DHT22;35493;50.276;9.372;2023-10-09T03:31:25;12.40;87.50
49413;DHT22;35493;50.276;9.372;2023-10-09T03:33:58;12.40;87.70
49413;DHT22;35493;50.276;9.372;2023-10-09T03:36:31;12.40;87.80
49413;DHT22;35493;50.276;9.372;2023-10-09T03:39:09;12.40;87.80
49413;DHT22;35493;50.276;9.372;2023-10-09T03:41:56;12.40;87.90
49413;DHT22;35493;50.276;9.372;2023-10-09T03:44:32;12.40;87.90
49413;DHT22;35493;50.276;9.372;2023-10-09T03:47:07;12.40;88.10
49413;DHT22;35493;50.276;9.372;2023-10-09T03:49:42;12.40;88.10
49413;DHT22;35493;50.276;9.372;2023-10-09T03:52:15;12.50;88.10
49413;DHT22;35493;50.276;9.372;2023-10-09T03:54:49;12.40;88.10
49413;DHT22;35493;50.276;9.372;2023-10-09T03:57:16;12.50;88.00
49413;DHT22;35493;50.276;9.372;2023-10-09T03:59:53;12.50;88.00
49413;DHT22;35493;50.276;9.372;2023-10-09T04:02:37;12.40;88.10
49413;DHT22;35493;50.276;9.372;2023-10-09T04:05:10;12.50;88.10
49413;DHT22;35493;50.276;9.372;2023-10-09T04:07:43;12.50;88.20
49413;DHT22;35493;50.276;9.372;2023-10-09T04:10:17;12.50;88.20
49413;DHT22;35493;50.276;9.372;2023-10-09T04:13:04;12.50;88.40
49413;DHT22;35493;50.276;9.372;2023-10-09T04:15:44;12.50;88.60
49413;DHT22;35493;50.276;9.372;2023-10-09T04:18:17;12.50;88.70
49413;DHT22;35493;50.276;9.372;2023-10-09T04:20:50;12.50;88.60
49413;DHT22;35493;50.276;9.372;2023-10-09T04:23:50;12.50;88.60
49413;DHT22;35493;50.276;9.372;2023-10-09T04:26:42;12.50;88.50
49413;DHT22;35493;50.276;9.372;2023-10-09T04:29:16;12.50;88.40
49413;DHT22;35493;50.276;9.372;2023-10-09T04:31:57;12.50;88.50
49413;DHT22;35493;50.276;9.372;2023-10-09T04:34:32;12.50;88.40
49413;DHT22;35493;50.276;9.372;2023-10-09T04:37:07;12.50;88.40
49413;DHT22;35493;50.276;9.372;2023-10-09T04:39:55;12.50;88.40
49413;DHT22;35493;50.276;9.372;2023-10-09T04:42:42;12.50;88.40
49413;DHT22;35493;50.276;9.372;2023-10-09T04:45:29;12.40;88.40
49413;DHT22;35493;50.276;9.372;2023-10-09T04:48:22;12.40;88.50
49413;DHT22;35493;50.276;9.372;2023-10-09T04:51:09;12.40;88.50
49413;DHT22;35493;50.276;9.372;2023-10-09T04:54:05;12.40;88.60
49413;DHT22;35493;50.276;9.372;2023-10-09T04:57:05;12.50;88.50
49413;DHT22;35493;50.276;9.372;2023-10-09T04:59:49;12.40;88.70
49413;DHT22;35493;50.276;9.372;2023-10-09T05:02:23;12.40;88.70
49413;DHT22;35493;50.276;9.372;2023-10-09T05:05:09;12.40;88.80
49413;DHT22;35493;50.276;9.372;2023-10-09T05:07:59;12.40;88.70
49413;DHT22;35493;50.276;9.372;2023-10-09T05:10:51;12.40;88.70
49413;DHT22;35493;50.276;9.372;2023-10-09T05:13:37;12.40;88.80
49413;DHT22;35493;50.276;9.372;2023-10-09T05:16:18;12.40;88.70
49413;DHT22;35493;50.276;9.372;2023-10-09T05:18:56;12.40;88.60
49413;DHT22;35493;50.276;9.372;2023-10-09T05:21:33;12.40;88.40
49413;DHT22;35493;50.276;9.372;2023-10-09T05:24:16;12.40;88.40
49413;DHT22;35493;50.276;9.372;2023-10-09T05:26:50;12.40;88.40
49413;DHT22;35493;50.276;9.372;2023-10-09T05:29:23;12.40;88.40
49413;DHT22;35493;50.276;9.372;2023-10-09T05:32:20;12.30;88.50
49413;DHT22;35493;50.276;9.372;2023-10-09T05:35:02;12.30;88.50
49413;DHT22;35493;50.276;9.372;2023-10-09T05:37:40;12.30;88.50
49413;DHT22;35493;50.276;9.372;2023-10-09T05:40:18;12.30;88.50
49413;DHT22;35493;50.276;9.372;2023-10-09T05:43:02;12.40;88.50
49413;DHT22;35493;50.276;9.372;2023-10-09T05:45:37;12.40;88.60
49413;DHT22;35493;50.276;9.372;2023-10-09T05:48:28;12.40;88.60
49413;DHT22;35493;50.276;9.372;2023-10-09T05:51:20;12.40;88.60
49413;DHT22;35493;50.276;9.372;2023-10-09T05:54:09;12.40;88.70
49413;DHT22;35493;50.276;9.372;2023-10-09T05:56:55;12.40;88.80
49413;DHT22;35493;50.276;9.372;2023-10-09T05:59:46;12.40;88.70
49413;DHT22;35493;50.276;9.372;2023-10-09T06:02:38;12.50;88.70
49413;DHT22;35493;50.276;9.372;2023-10-09T06:05:33;12.50;88.70
49413;DHT22;35493;50.276;9.372;2023-10-09T06:08:33;12.50;88.70
49413;DHT22;35493;50.276;9.372;2023-10-09T06:11:34;12.50;88.60
49413;DHT22;35493;50.276;9.372;2023-10-09T06:14:19;12.50;88.60
49413;DHT22;35493;50.276;9.372;2023-10-09T06:16:57;12.50;88.60
49413;DHT22;35493;50.276;9.372;2023-10-09T06:19:34;12.50;88.40
49413;DHT22;35493;50.276;9.372;2023-10-09T06:22:14;12.60;88.50
49413;DHT22;35493;50.276;9.372;2023-10-09T06:25:07;12.60;88.50
49413;DHT22;35493;50.276;9.372;2023-10-09T06:27:51;12.60;88.50
49413;DHT22;35493;50.276;9.372;2023-10-09T06:30:29;12.60;88.60
49413;DHT22;35493;50.276;9.372;2023-10-09T06:33:06;12.60;88.60
49413;DHT22;35493;50.276;9.372;2023-10-09T06:35:50;12.60;88.60
49413;DHT22;35493;50.276;9.372;2023-10-09T06:38:26;12.70;88.60
49413;DHT22;35493;50.276;9.372;2023-10-09T06:41:12;12.70;88.70
49413;DHT22;35493;50.276;9.372;2023-10-09T06:44:07;12.70;88.70
49413;DHT22;35493;50.276;9.372;2023-10-09T06:46:54;12.70;88.70
49413;DHT22;35493;50.276;9.372;2023-10-09T06:49:29;12.80;88.80
49413;DHT22;35493;50.276;9.372;2023-10-09T06:52:04;12.80;88.70
49413;DHT22;35493;50.276;9.372;2023-10-09T06:54:46;12.90;88.50
49413;DHT22;35493;50.276;9.372;2023-10-09T06:57:22;12.90;88.70
49413;DHT22;35493;50.276;9.372;2023-10-09T07:00:11;12.90;88.70
49413;DHT22;35493;50.276;9.372;2023-10-09T07:03:03;12.80;88.90
49413;DHT22;35493;50.276;9.372;2023-10-09T07:05:42;12.90;88.80
49413;DHT22;35493;50.276;9.372;2023-10-09T07:08:32;12.90;88.90
49413;DHT22;35493;50.276;9.372;2023-10-09T07:11:08;12.90;88.70
49413;DHT22;35493;50.276;9.372;2023-10-09T07:14:14;12.90;88.70
49413;DHT22;35493;50.276;9.372;2023-10-09T07:17:06;12.90;88.80
49413;DHT22;35493;50.276;9.372;2023-10-09T07:19:54;12.90;88.80
49413;DHT22;35493;50.276;9.372;2023-10-09T07:22:47;12.90;88.90
49413;DHT22;35493;50.276;9.372;2023-10-09T07:25:27;13.00;88.80
49413;DHT22;35493;50.276;9.372;2023-10-09T07:28:05;13.00;88.80
49413;DHT22;35493;50.276;9.372;2023-10-09T07:30:49;13.00;88.70
49413;DHT22;35493;50.276;9.372;2023-10-09T07:33:31;13.00;88.70
49413;DHT22;35493;50.276;9.372;2023-10-09T07:36:24;13.00;88.80
49413;DHT22;35493;50.276;9.372;2023-10-09T07:39:09;13.10;88.80
49413;DHT22;35493;50.276;9.372;2023-10-09T07:41:49;13.10;88.80
49413;DHT22;35493;50.276;9.372;2023-10-09T07:44:34;13.10;88.80
49413;DHT22;35493;50.276;9.372;2023-10-09T07:47:09;13.10;88.70
49413;DHT22;35493;50.276;9.372;2023-10-09T07:50:02;13.10;88.80
49413;DHT22;35493;50.276;9.372;2023-10-09T07:52:35;13.10;88.70
49413;DHT22;35493;50.276;9.372;2023-10-09T07:55:15;13.20;88.70
49413;DHT22;35493;50.276;9.372;2023-10-09T07:57:58;13.20;88.70
49413;DHT22;35493;50.276;9.372;2023-10-09T08:00:43;13.30;88.90
49413;DHT22;35493;50.276;9.372;2023-10-09T08:03:48;13.30;88.60
49413;DHT22;35493;50.276;9.372;2023-10-09T08:06:30;13.40;88.80
49413;DHT22;35493;50.276;9.372;2023-10-09T08:09:14;13.40;88.60
49413;DHT22;35493;50.276;9.372;2023-10-09T08:12:19;13.50;88.50
49413;DHT22;35493;50.276;9.372;2023-10-09T08:15:10;13.50;88.30
49413;DHT22;35493;50.276;9.372;2023-10-09T08:17:53;13.60;88.70
49413;DHT22;35493;50.276;9.372;2023-10-09T08:20:26;13.70;88.30
49413;DHT22;35493;50.276;9.372;2023-10-09T08:23:09;13.90;88.40
49413;DHT22;35493;50.276;9.372;2023-10-09T08:25:58;14.10;88.30
49413;DHT22;35493;50.276;9.372;2023-10-09T08:28:44;14.20;88.20
49413;DHT22;35493;50.276;9.372;2023-10-09T08:31:17;14.20;88.00
49413;DHT22;35493;50.276;9.372;2023-10-09T08:34:17;14.30;88.20
49413;DHT22;35493;50.276;9.372;2023-10-09T08:36:59;14.30;88.20
49413;DHT22;35493;50.276;9.372;2023-10-09T08:39:33;14.30;88.20
49413;DHT22;35493;50.276;9.372;2023-10-09T08:42:09;14.20;88.30
49413;DHT22;35493;50.276;9.372;2023-10-09T08:44:44;14.30;88.40
49413;DHT22;35493;50.276;9.372;2023-10-09T08:47:35;14.20;88.40
49413;DHT22;35493;50.276;9.372;2023-10-09T08:50:09;14.20;88.60
49413;DHT22;35493;50.276;9.372;2023-10-09T08:52:52;14.30;88.70
49413;DHT22;35493;50.276;9.372;2023-10-09T08:55:26;14.30;88.70
49413;DHT22;35493;50.276;9.372;2023-10-09T08:58:00;14.40;88.70
49413;DHT22;35493;50.276;9.372;2023-10-09T09:00:38;14.50;88.70
49413;DHT22;35493;50.276;9.372;2023-10-09T09:03:15;14.60;88.90
49413;DHT22;35493;50.276;9.372;2023-10-09T09:06:00;14.60;88.60
49413;DHT22;35493;50.276;9.372;2023-10-09T09:08:34;14.70;88.70
49413;DHT22;35493;50.276;9.372;2023-10-09T09:11:10;14.70;88.50
49413;DHT22;35493;50.276;9.372;2023-10-09T09:13:59;14.90;88.40
49413;DHT22;35493;50.276;9.372;2023-10-09T09:16:36;15.00;88.30
49413;DHT22;35493;50.276;9.372;2023-10-09T09:19:16;15.10;88.20
49413;DHT22;35493;50.276;9.372;2023-10-09T09:21:51;15.20;88.20
49413;DHT22;35493;50.276;9.372;2023-10-09T09:24:27;15.40;87.70
49413;DHT22;35493;50.276;9.372;2023-10-09T09:27:04;15.60;87.70
49413;DHT22;35493;50.276;9.372;2023-10-09T09:29:50;15.60;87.60
49413;DHT22;35493;50.276;9.372;2023-10-09T09:32:26;15.70;87.60
49413;DHT22;35493;50.276;9.372;2023-10-09T09:35:02;15.70;87.20
49413;DHT22;35493;50.276;9.372;2023-10-09T09:37:36;15.70;87.20
49413;DHT22;35493;50.276;9.372;2023-10-09T09:40:22;15.80;87.30
49413;DHT22;35493;50.276;9.372;2023-10-09T09:43:03;15.90;87.00
49413;DHT22;35493;50.276;9.372;2023-10-09T09:45:38;16.00;87.10
49413;DHT22;35493;50.276;9.372;2023-10-09T09:48:18;16.10;86.90
49413;DHT22;35493;50.276;9.372;2023-10-09T09:50:52;16.20;86.80
49413;DHT22;35493;50.276;9.372;2023-10-09T09:53:26;16.30;86.70
49413;DHT22;35493;50.276;9.372;2023-10-09T09:55:59;16.40;86.60
49413;DHT22;35493;50.276;9.372;2023-10-09T09:58:33;16.50;86.00
49413;DHT22;35493;50.276;9.372;2023-10-09T10:01:14;16.50;85.80
49413;DHT22;35493;50.276;9.372;2023-10-09T10:03:56;16.60;85.70
49413;DHT22;35493;50.276;9.372;2023-10-09T10:06:30;16.60;85.60
49413;DHT22;35493;50.276;9.372;2023-10-09T10:09:05;16.60;85.60
49413;DHT22;35493;50.276;9.372;2023-10-09T10:11:42;16.50;85.60
49413;DHT22;35493;50.276;9.372;2023-10-09T10:14:17;16.50;85.70
49413;DHT22;35493;50.276;9.372;2023-10-09T10:17:01;16.50;85.80
49413;DHT22;35493;50.276;9.372;2023-10-09T10:22:28;16.50;85.90
49413;DHT22;35493;50.276;9.372;2023-10-09T10:25:02;16.50;86.00
49413;DHT22;35493;50.276;9.372;2023-10-09T10:27:41;16.50;86.10
49413;DHT22;35493;50.276;9.372;2023-10-09T10:30:31;16.50;86.40
49413;DHT22;35493;50.276;9.372;2023-10-09T10:33:09;16.60;86.30
49413;DHT22;35493;50.276;9.372;2023-10-09T10:35:50;16.60;86.40
49413;DHT22;35493;50.276;9.372;2023-10-09T10:38:28;16.60;86.40
49413;DHT22;35493;50.276;9.372;2023-10-09T10:41:09;16.60;86.60
49413;DHT22;35493;50.276;9.372;2023-10-09T10:43:44;16.60;86.40
49413;DHT22;35493;50.276;9.372;2023-10-09T10:46:27;16.60;86.30
49413;DHT22;35493;50.276;9.372;2023-10-09T10:49:14;16.70;86.20
49413;DHT22;35493;50.276;9.372;2023-10-09T10:51:48;16.70;86.40
49413;DHT22;35493;50.276;9.372;2023-10-09T10:54:33;16.60;86.30
49413;DHT22;35493;50.276;9.372;2023-10-09T10:57:19;16.60;86.50
49413;DHT22;35493;50.276;9.372;2023-10-09T11:00:00;16.60;86.50
49413;DHT22;35493;50.276;9.372;2023-10-09T11:02:48;16.60;86.40
49413;DHT22;35493;50.276;9.372;2023-10-09T11:05:24;16.70;86.40
49413;DHT22;35493;50.276;9.372;2023-10-09T11:07:58;16.60;86.30
49413;DHT22;35493;50.276;9.372;2023-10-09T11:10:33;16.70;86.60
49413;DHT22;35493;50.276;9.372;2023-10-09T11:13:06;16.80;86.40
49413;DHT22;35493;50.276;9.372;2023-10-09T11:16:03;16.80;86.30
49413;DHT22;35493;50.276;9.372;2023-10-09T11:19:02;16.90;86.10
49413;DHT22;35493;50.276;9.372;2023-10-09T11:21:45;17.00;86.00
49413;DHT22;35493;50.276;9.372;2023-10-09T11:24:18;17.10;86.00
49413;DHT22;35493;50.276;9.372;2023-10-09T11:26:59;17.10;85.90
49413;DHT22;35493;50.276;9.372;2023-10-09T11:29:37;17.10;85.90
49413;DHT22;35493;50.276;9.372;2023-10-09T11:32:25;17.10;85.80
49413;DHT22;35493;50.276;9.372;2023-10-09T11:35:12;17.10;85.80
49413;DHT22;35493;50.276;9.372;2023-10-09T11:37:56;17.20;85.60
49413;DHT22;35493;50.276;9.372;2023-10-09T11:40:30;17.20;85.50
49413;DHT22;35493;50.276;9.372;2023-10-09T11:43:15;17.20;85.60
49413;DHT22;35493;50.276;9.372;2023-10-09T11:45:41;17.30;85.20
49413;DHT22;35493;50.276;9.372;2023-10-09T11:48:26;17.30;85.30
49413;DHT22;35493;50.276;9.372;2023-10-09T11:51:11;17.40;85.30
49413;DHT22;35493;50.276;9.372;2023-10-09T11:53:51;17.40;85.10
49413;DHT22;35493;50.276;9.372;2023-10-09T11:56:27;17.40;84.80
49413;DHT22;35493;50.276;9.372;2023-10-09T11:59:01;17.40;84.70
49413;DHT22;35493;50.276;9.372;2023-10-09T12:01:37;17.50;84.80
49413;DHT22;35493;50.276;9.372;2023-10-09T12:04:14;17.50;84.90
49413;DHT22;35493;50.276;9.372;2023-10-09T12:06:48;17.50;84.80
49413;DHT22;35493;50.276;9.372;2023-10-09T12:09:22;17.60;84.50
49413;DHT22;35493;50.276;9.372;2023-10-09T12:11:56;17.60;84.30
49413;DHT22;35493;50.276;9.372;2023-10-09T12:14:32;17.60;84.10
49413;DHT22;35493;50.276;9.372;2023-10-09T12:17:07;17.70;83.70
49413;DHT22;35493;50.276;9.372;2023-10-09T12:19:41;17.70;83.40
49413;DHT22;35493;50.276;9.372;2023-10-09T12:22:16;17.70;83.30
49413;DHT22;35493;50.276;9.372;2023-10-09T12:24:50;17.70;83.00
49413;DHT22;35493;50.276;9.372;2023-10-09T12:27:23;17.80;82.70
49413;DHT22;35493;50.276;9.372;2023-10-09T12:29:56;17.80;82.70
49413;DHT22;35493;50.276;9.372;2023-10-09T12:32:30;17.90;82.50
49413;DHT22;35493;50.276;9.372;2023-10-09T12:35:08;17.90;82.60
49413;DHT22;35493;50.276;9.372;2023-10-09T12:37:50;17.90;82.30
49413;DHT22;35493;50.276;9.372;2023-10-09T12:40:24;17.90;82.30
49413;DHT22;35493;50.276;9.372;2023-10-09T12:43:01;18.00;82.30
49413;DHT22;35493;50.276;9.372;2023-10-09T12:45:34;17.90;82.20
49413;DHT22;35493;50.276;9.372;2023-10-09T12:48:07;17.90;82.30
49413;DHT22;35493;50.276;9.372;2023-10-09T12:50:41;18.00;82.00
49413;DHT22;35493;50.276;9.372;2023-10-09T12:53:17;18.00;81.80
49413;DHT22;35493;50.276;9.372;2023-10-09T12:55:57;18.00;82.00
49413;DHT22;35493;50.276;9.372;2023-10-09T12:58:31;18.10;82.00
49413;DHT22;35493;50.276;9.372;2023-10-09T13:01:09;18.00;82.00
49413;DHT22;35493;50.276;9.372;2023-10-09T13:03:43;18.10;81.70
49413;DHT22;35493;50.276;9.372;2023-10-09T13:06:09;18.00;81.60
49413;DHT22;35493;50.276;9.372;2023-10-09T13:08:45;18.00;81.80
49413;DHT22;35493;50.276;9.372;2023-10-09T13:11:19;18.10;81.80
49413;DHT22;35493;50.276;9.372;2023-10-09T13:13:52;18.00;81.60
49413;DHT22;35493;50.276;9.372;2023-10-09T13:16:25;18.00;82.00
49413;DHT22;35493;50.276;9.372;2023-10-09T13:19:00;18.00;81.70
49413;DHT22;35493;50.276;9.372;2023-10-09T13:21:47;18.00;81.60
49413;DHT22;35493;50.276;9.372;2023-10-09T13:24:22;18.00;81.80
49413;DHT22;35493;50.276;9.372;2023-10-09T13:27:02;18.00;81.70
49413;DHT22;35493;50.276;9.372;2023-10-09T13:29:29;18.10;81.50
49413;DHT22;35493;50.276;9.372;2023-10-09T13:32:06;18.10;81.60
49413;DHT22;35493;50.276;9.372;2023-10-09T13:34:45;18.00;81.60
49413;DHT22;35493;50.276;9.372;2023-10-09T13:37:18;18.00;81.50
49413;DHT22;35493;50.276;9.372;2023-10-09T13:39:55;18.10;81.80
49413;DHT22;35493;50.276;9.372;2023-10-09T13:42:29;18.10;81.80
49413;DHT22;35493;50.276;9.372;2023-10-09T13:45:02;18.10;82.00
49413;DHT22;35493;50.276;9.372;2023-10-09T13:47:37;18.10;81.80
49413;DHT22;35493;50.276;9.372;2023-10-09T13:50:10;18.10;82.00
49413;DHT22;35493;50.276;9.372;2023-10-09T13:52:43;18.10;81.80
49413;DHT22;35493;50.276;9.372;2023-10-09T13:55:17;18.10;81.90
49413;DHT22;35493;50.276;9.372;2023-10-09T13:57:51;18.10;81.80
49413;DHT22;35493;50.276;9.372;2023-10-09T14:00:24;18.10;81.90
49413;DHT22;35493;50.276;9.372;2023-10-09T14:03:06;18.10;81.90
49413;DHT22;35493;50.276;9.372;2023-10-09T14:05:44;18.10;81.80
49413;DHT22;35493;50.276;9.372;2023-10-09T14:08:26;18.10;81.90
49413;DHT22;35493;50.276;9.372;2023-10-09T14:11:02;18.10;81.90
49413;DHT22;35493;50.276;9.372;2023-10-09T14:13:36;18.10;81.60
49413;DHT22;35493;50.276;9.372;2023-10-09T14:16:09;18.10;81.90
49413;DHT22;35493;50.276;9.372;2023-10-09T14:18:56;18.10;81.90
49413;DHT22;35493;50.276;9.372;2023-10-09T14:21:31;18.10;81.80
49413;DHT22;35493;50.276;9.372;2023-10-09T14:24:05;18.10;81.90
49413;DHT22;35493;50.276;9.372;2023-10-09T14:26:48;18.10;81.70
49413;DHT22;35493;50.276;9.372;2023-10-09T14:29:24;18.10;81.80
49413;DHT22;35493;50.276;9.372;2023-10-09T14:31:59;18.10;81.70
49413;DHT22;35493;50.276;9.372;2023-10-09T14:34:35;18.10;81.60
49413;DHT22;35493;50.276;9.372;2023-10-09T14:37:11;18.10;81.80
49413;DHT22;35493;50.276;9.372;2023-10-09T14:39:44;18.10;81.90
49413;DHT22;35493;50.276;9.372;2023-10-09T14:42:21;18.10;81.70
49413;DHT22;35493;50.276;9.372;2023-10-09T14:44:56;18.10;81.80
49413;DHT22;35493;50.276;9.372;2023-10-09T14:47:29;18.10;81.80
49413;DHT22;35493;50.276;9.372;2023-10-09T14:50:03;18.10;82.00
49413;DHT22;35493;50.276;9.372;2023-10-09T14:52:40;18.10;82.00
49413;DHT22;35493;50.276;9.372;2023-10-09T14:55:13;18.10;81.80
49413;DHT22;35493;50.276;9.372;2023-10-09T14:57:54;18.10;81.70
49413;DHT22;35493;50.276;9.372;2023-10-09T15:00:28;18.10;81.40
49413;DHT22;35493;50.276;9.372;2023-10-09T15:03:06;18.20;81.20
49413;DHT22;35493;50.276;9.372;2023-10-09T15:05:44;18.10;81.00
49413;DHT22;35493;50.276;9.372;2023-10-09T15:08:17;18.10;81.00
49413;DHT22;35493;50.276;9.372;2023-10-09T15:10:50;18.20;80.70
49413;DHT22;35493;50.276;9.372;2023-10-09T15:13:29;18.10;80.50
49413;DHT22;35493;50.276;9.372;2023-10-09T15:16:03;18.10;80.40
49413;DHT22;35493;50.276;9.372;2023-10-09T15:18:37;18.10;80.30
49413;DHT22;35493;50.276;9.372;2023-10-09T15:21:10;18.10;80.20
49413;DHT22;35493;50.276;9.372;2023-10-09T15:23:43;18.10;80.20
49413;DHT22;35493;50.276;9.372;2023-10-09T15:26:16;18.10;80.60
49413;DHT22;35493;50.276;9.372;2023-10-09T15:28:51;18.10;81.50
49413;DHT22;35493;50.276;9.372;2023-10-09T15:31:25;18.10;82.00
49413;DHT22;35493;50.276;9.372;2023-10-09T15:33:59;18.00;82.30
49413;DHT22;35493;50.276;9.372;2023-10-09T15:36:33;18.00;82.90
49413;DHT22;35493;50.276;9.372;2023-10-09T15:39:07;18.00;83.20
49413;DHT22;35493;50.276;9.372;2023-10-09T15:41:43;18.00;83.30
49413;DHT22;35493;50.276;9.372;2023-10-09T15:44:17;17.90;83.80
49413;DHT22;35493;50.276;9.372;2023-10-09T15:46:51;17.90;84.00
49413;DHT22;35493;50.276;9.372;2023-10-09T15:49:31;17.90;84.40
49413;DHT22;35493;50.276;9.372;2023-10-09T15:52:06;17.80;84.50
49413;DHT22;35493;50.276;9.372;2023-10-09T15:54:41;17.80;84.50
49413;DHT22;35493;50.276;9.372;2023-10-09T15:57:15;17.80;84.80
49413;DHT22;35493;50.276;9.372;2023-10-09T15:59:50;17.80;84.90
49413;DHT22;35493;50.276;9.372;2023-10-09T16:02:24;17.70;84.80
49413;DHT22;35493;50.276;9.372;2023-10-09T16:04:58;17.70;85.00
49413;DHT22;35493;50.276;9.372;2023-10-09T16:07:32;17.70;84.70
49413;DHT22;35493;50.276;9.372;2023-10-09T16:10:05;17.70;84.70
49413;DHT22;35493;50.276;9.372;2023-10-09T16:12:40;17.70;84.70
49413;DHT22;35493;50.276;9.372;2023-10-09T16:15:15;17.60;84.70
49413;DHT22;35493;50.276;9.372;2023-10-09T16:17:49;17.60;84.80
49413;DHT22;35493;50.276;9.372;2023-10-09T16:20:30;17.60;84.90
49413;DHT22;35493;50.276;9.372;2023-10-09T16:23:04;17.50;85.00
49413;DHT22;35493;50.276;9.372;2023-10-09T16:25:37;17.50;85.10
49413;DHT22;35493;50.276;9.372;2023-10-09T16:28:13;17.50;85.10
49413;DHT22;35493;50.276;9.372;2023-10-09T16:30:55;17.50;85.20
49413;DHT22;35493;50.276;9.372;2023-10-09T16:33:30;17.40;85.10
49413;DHT22;35493;50.276;9.372;2023-10-09T16:36:03;17.40;85.20
49413;DHT22;35493;50.276;9.372;2023-10-09T16:38:36;17.40;85.20
49413;DHT22;35493;50.276;9.372;2023-10-09T16:41:11;17.40;85.30
49413;DHT22;35493;50.276;9.372;2023-10-09T16:43:46;17.40;85.40
49413;DHT22;35493;50.276;9.372;2023-10-09T16:46:23;17.30;85.30